Time;durP1;ratioP1;P1;durP2;ratioP2;P2;SDS_P1;SDS_P2;PMS_P1;PMS_P2;Temp;Humidity;BMP_temperature;BMP_pressure;BME280_temperature;BME280_humidity;BME280_pressure;Samples;Min_cycle;Max_cycle;Signal;HPM_P1;HPM_P2
2021/08/01 00:02:17;;;;;;;3.20;2.67;;;15.00;99.90;;;;;;6182493;23;20341;-85
2021/08/01 00:04:44;;;;;;;3.83;2.70;;;15.00;99.90;;;;;;6183389;23;20025;-86
2021/08/01 00:07:11;;;;;;;4.20;2.90;;;15.00;99.90;;;;;;6182443;23;20028;-86
2021/08/01 00:09:38;;;;;;;8.52;3.33;;;15.00;99.90;;;;;;6183233;23;20013;-86
2021/08/01 00:12:05;;;;;;;5.13;2.80;;;15.00;99.90;;;;;;6184210;23;20045;-85
2021/08/01 00:14:32;;;;;;;4.63;2.90;;;15.00;99.90;;;;;;6184658;23;20028;-86
2021/08/01 00:17:00;;;;;;;5.05;3.38;;;15.00;99.90;;;;;;6185005;23;20024;-86
2021/08/01 00:19:27;;;;;;;5.60;3.10;;;15.10;99.90;;;;;;6182985;23;20028;-86
2021/08/01 00:21:54;;;;;;;5.80;3.00;;;15.10;99.90;;;;;;6185157;23;20017;-86
2021/08/01 00:24:22;;;;;;;4.22;3.03;;;15.10;99.90;;;;;;6182223;23;20070;-86
2021/08/01 00:26:49;;;;;;;5.70;2.95;;;15.10;99.90;;;;;;6182725;23;20031;-85
2021/08/01 00:29:16;;;;;;;4.03;2.97;;;15.10;99.90;;;;;;6183005;23;20048;-86
2021/08/01 00:31:43;;;;;;;3.75;2.67;;;15.10;99.90;;;;;;6185448;23;20047;-86
2021/08/01 00:34:10;;;;;;;6.10;2.83;;;15.10;99.90;;;;;;6184421;23;20027;-85
2021/08/01 00:36:37;;;;;;;4.57;3.30;;;15.10;99.90;;;;;;6185168;23;20031;-85
2021/08/01 00:39:04;;;;;;;5.65;2.53;;;15.10;99.90;;;;;;6185564;23;20032;-86
2021/08/01 00:41:33;;;;;;;5.28;2.63;;;15.10;99.90;;;;;;6184984;23;20025;-86
2021/08/01 00:44:00;;;;;;;4.35;2.88;;;15.10;99.90;;;;;;6185522;23;20040;-86
2021/08/01 00:46:27;;;;;;;6.13;3.10;;;15.10;99.90;;;;;;6184627;23;20023;-86
2021/08/01 00:48:54;;;;;;;5.22;2.80;;;15.10;99.90;;;;;;6189089;23;20432;-85
2021/08/01 00:51:22;;;;;;;6.25;3.10;;;15.10;99.90;;;;;;6199626;23;20044;-86
2021/08/01 00:53:49;;;;;;;5.05;2.55;;;15.10;99.90;;;;;;6187769;23;20087;-86
2021/08/01 00:56:16;;;;;;;5.55;3.55;;;15.10;99.90;;;;;;6184610;23;20025;-86
2021/08/01 00:58:43;;;;;;;4.15;2.63;;;15.10;99.90;;;;;;6185258;23;20025;-86
2021/08/01 01:01:15;;;;;;;9.10;3.10;;;15.00;99.90;;;;;;6184378;23;20444;-86
2021/08/01 01:03:50;;;;;;;6.15;3.20;;;15.00;99.90;;;;;;6184928;23;20095;-86
2021/08/01 01:06:54;;;;;;;6.65;3.45;;;14.90;99.90;;;;;;6184356;23;20024;-85
2021/08/01 01:09:44;;;;;;;8.25;3.45;;;14.90;99.90;;;;;;6184322;23;20029;-85
2021/08/01 01:12:14;;;;;;;6.45;3.28;;;14.90;99.90;;;;;;6184057;23;20324;-85
2021/08/01 01:14:53;;;;;;;6.05;3.20;;;14.80;99.90;;;;;;6184422;23;20452;-86
2021/08/01 01:17:23;;;;;;;6.43;3.67;;;14.80;99.90;;;;;;6185565;23;20456;-85
2021/08/01 01:20:11;;;;;;;9.13;3.58;;;14.70;99.90;;;;;;6184985;23;20084;-86
2021/08/01 01:22:55;;;;;;;8.88;3.50;;;14.80;99.90;;;;;;6184667;23;20027;-86
2021/08/01 01:25:49;;;;;;;9.98;3.60;;;14.70;99.90;;;;;;6184154;23;20017;-85
2021/08/01 01:28:24;;;;;;;8.35;3.53;;;14.80;99.90;;;;;;6183990;23;20420;-86
2021/08/01 01:31:06;;;;;;;10.55;3.50;;;14.80;99.90;;;;;;6184511;23;20025;-86
2021/08/01 01:33:35;;;;;;;8.10;3.38;;;14.80;99.90;;;;;;6184165;23;20025;-86
2021/08/01 01:36:06;;;;;;;7.85;3.33;;;14.80;99.90;;;;;;6184745;23;20021;-86
2021/08/01 01:38:34;;;;;;;10.18;3.38;;;14.80;99.90;;;;;;6184238;23;20412;-86
2021/08/01 01:41:01;;;;;;;9.63;3.80;;;14.70;99.90;;;;;;6184725;23;20021;-85
2021/08/01 01:43:28;;;;;;;11.13;3.67;;;14.80;99.90;;;;;;6184007;23;20029;-86
2021/08/01 01:45:56;;;;;;;6.85;3.38;;;14.70;99.90;;;;;;6184229;23;20028;-86
2021/08/01 01:48:23;;;;;;;10.43;3.25;;;14.70;99.90;;;;;;6183521;23;20029;-87
2021/08/01 01:50:50;;;;;;;8.27;3.40;;;14.70;99.90;;;;;;6186131;23;20034;-86
2021/08/01 01:53:18;;;;;;;11.93;4.40;;;14.60;99.90;;;;;;6184161;23;20062;-87
2021/08/01 01:55:46;;;;;;;12.07;4.05;;;14.60;99.90;;;;;;6186099;23;20072;-86
2021/08/01 01:58:14;;;;;;;11.40;3.80;;;14.60;99.90;;;;;;6184015;23;20444;-87
2021/08/01 02:00:41;;;;;;;10.88;4.70;;;14.60;99.90;;;;;;6184524;23;20825;-85
2021/08/01 02:03:08;;;;;;;13.90;4.80;;;14.60;99.90;;;;;;6183849;23;20021;-85
2021/08/01 02:05:35;;;;;;;13.63;5.55;;;14.60;99.90;;;;;;6187634;23;20017;-85
2021/08/01 02:08:02;;;;;;;13.90;5.57;;;14.60;99.90;;;;;;6199647;23;20032;-85
2021/08/01 02:10:32;;;;;;;22.23;6.25;;;14.60;99.90;;;;;;6187650;23;20048;-86
2021/08/01 02:13:03;;;;;;;17.13;6.47;;;14.60;99.90;;;;;;6186311;23;20017;-86
2021/08/01 02:15:45;;;;;;;18.00;6.85;;;14.60;99.90;;;;;;6184226;23;20013;-87
2021/08/01 02:18:21;;;;;;;40.47;8.40;;;14.60;99.90;;;;;;6183507;23;20448;-86
2021/08/01 02:20:50;;;;;;;59.85;9.00;;;14.60;99.90;;;;;;6184297;23;20021;-86
2021/08/01 02:23:24;;;;;;;28.42;8.40;;;14.60;99.90;;;;;;6183540;23;20025;-87
2021/08/01 02:25:52;;;;;;;79.75;8.55;;;14.60;99.90;;;;;;6185198;23;20021;-85
2021/08/01 02:28:25;;;;;;;21.63;7.82;;;14.60;99.90;;;;;;6171696;23;20399;-88
2021/08/01 02:30:56;;;;;;;22.27;8.30;;;14.60;99.90;;;;;;6184114;23;20028;-88
2021/08/01 02:33:28;;;;;;;32.15;7.88;;;14.60;99.90;;;;;;6185300;23;20441;-87
2021/08/01 02:35:59;;;;;;;18.88;8.60;;;14.60;99.90;;;;;;6183907;23;20035;-88
2021/08/01 02:38:27;;;;;;;14.13;7.45;;;14.60;99.90;;;;;;6183732;23;20023;-87
2021/08/01 02:41:01;;;;;;;15.60;7.75;;;14.60;99.90;;;;;;6185736;23;20028;-87
2021/08/01 02:43:30;;;;;;;13.80;7.78;;;14.60;99.90;;;;;;6183230;23;20017;-87
2021/08/01 02:45:57;;;;;;;14.38;7.18;;;14.60;99.90;;;;;;6185859;23;20021;-87
2021/08/01 02:48:26;;;;;;;12.77;7.00;;;14.50;99.90;;;;;;6185595;23;20391;-87
2021/08/01 02:51:02;;;;;;;14.68;7.63;;;14.50;99.90;;;;;;6122565;23;20088;-87
2021/08/01 02:53:33;;;;;;;17.35;6.70;;;14.50;99.90;;;;;;6183433;23;20086;-87
2021/08/01 02:56:03;;;;;;;12.60;6.68;;;14.50;99.90;;;;;;6184031;23;20364;-87
2021/08/01 02:58:32;;;;;;;15.38;6.82;;;14.50;99.90;;;;;;6183293;23;20032;-87
2021/08/01 03:00:59;;;;;;;;;;;14.50;99.90;;;;;;6184041;23;20021;-87
2021/08/01 03:03:27;;;;;;;11.68;6.25;;;14.50;99.90;;;;;;6183577;23;19963;-87
2021/08/01 03:05:54;;;;;;;19.77;5.93;;;14.50;99.90;;;;;;6185401;23;20031;-87
2021/08/01 03:08:22;;;;;;;11.68;5.47;;;14.40;99.90;;;;;;6183306;23;20023;-87
2021/08/01 03:10:49;;;;;;;12.02;5.40;;;14.40;99.90;;;;;;6183834;23;20028;-87
2021/08/01 03:13:17;;;;;;;11.90;5.30;;;14.40;99.90;;;;;;6183037;23;20020;-87
2021/08/01 03:15:44;;;;;;;12.45;4.93;;;14.40;99.90;;;;;;6183827;23;20519;-87
2021/08/01 03:18:11;;;;;;;9.88;5.38;;;14.40;99.90;;;;;;6182718;23;20040;-87
2021/08/01 03:20:38;;;;;;;11.38;5.55;;;14.40;99.90;;;;;;6183858;23;20096;-87
2021/08/01 03:23:06;;;;;;;9.55;5.68;;;14.40;99.90;;;;;;6184233;23;20032;-87
2021/08/01 03:25:34;;;;;;;12.07;6.30;;;14.40;99.90;;;;;;6195693;23;20440;-86
2021/08/01 03:28:02;;;;;;;13.65;5.97;;;14.40;99.90;;;;;;6192576;23;20027;-87
2021/08/01 03:30:29;;;;;;;10.82;5.70;;;14.40;99.90;;;;;;6183670;23;20025;-87
2021/08/01 03:32:57;;;;;;;10.07;5.40;;;14.30;99.90;;;;;;6183695;23;20348;-87
2021/08/01 03:35:24;;;;;;;13.23;6.47;;;14.30;99.90;;;;;;6182893;23;20023;-87
2021/08/01 03:37:51;;;;;;;33.83;6.90;;;14.30;99.90;;;;;;6183195;23;20417;-87
2021/08/01 03:40:18;;;;;;;151.63;9.82;;;14.30;99.90;;;;;;6182903;23;20474;-88
2021/08/01 03:42:45;;;;;;;65.50;7.88;;;14.30;99.90;;;;;;6184021;23;20021;-87
2021/08/01 03:45:12;;;;;;;147.20;10.05;;;14.30;99.90;;;;;;6182892;23;20024;-87
2021/08/01 03:47:39;;;;;;;116.70;7.80;;;14.30;99.90;;;;;;6184868;23;20035;-88
2021/08/01 03:50:07;;;;;;;50.97;6.47;;;14.30;99.90;;;;;;6182851;23;20021;-87
2021/08/01 03:52:35;;;;;;;71.67;7.47;;;14.30;99.90;;;;;;6183339;23;20036;-87
2021/08/01 03:55:03;;;;;;;67.25;7.38;;;14.20;99.90;;;;;;6183462;23;20252;-87
2021/08/01 03:57:30;;;;;;;56.47;7.20;;;14.20;99.90;;;;;;6184292;23;20021;-87
2021/08/01 03:59:57;;;;;;;58.75;6.60;;;14.30;99.90;;;;;;6183469;23;20323;-87
2021/08/01 04:02:24;;;;;;;39.33;6.80;;;14.30;99.90;;;;;;6183927;23;20021;-87
2021/08/01 04:04:53;;;;;;;26.10;6.25;;;14.30;99.90;;;;;;6183118;23;20021;-87
2021/08/01 04:07:20;;;;;;;12.80;6.30;;;14.30;99.90;;;;;;6183061;23;20017;-87
2021/08/01 04:09:47;;;;;;;14.68;6.35;;;14.30;99.90;;;;;;6182952;23;20013;-87
2021/08/01 04:12:14;;;;;;;12.15;6.03;;;14.30;99.90;;;;;;6182470;23;20028;-87
2021/08/01 04:14:41;;;;;;;13.25;5.93;;;14.30;99.90;;;;;;6183410;23;20028;-87
2021/08/01 04:17:09;;;;;;;13.10;6.00;;;14.30;99.90;;;;;;6182775;23;20017;-87
2021/08/01 04:19:36;;;;;;;12.40;6.13;;;14.40;99.90;;;;;;6183530;23;20017;-87
2021/08/01 04:22:03;;;;;;;13.75;6.18;;;14.40;99.90;;;;;;6183362;23;20021;-87
2021/08/01 04:24:30;;;;;;;15.02;6.13;;;14.30;99.90;;;;;;6182513;23;20021;-87
2021/08/01 04:26:57;;;;;;;15.63;5.97;;;14.40;99.90;;;;;;6183159;23;20021;-87
2021/08/01 04:29:24;;;;;;;12.50;5.75;;;14.40;99.90;;;;;;6184043;23;20043;-87
2021/08/01 04:31:51;;;;;;;14.88;5.95;;;14.40;99.90;;;;;;6183279;23;20021;-87
2021/08/01 04:34:18;;;;;;;14.13;5.20;;;14.40;99.90;;;;;;6182542;23;20028;-87
2021/08/01 04:36:45;;;;;;;8.95;5.13;;;14.40;99.90;;;;;;6170064;23;20097;-87
2021/08/01 04:39:12;;;;;;;14.27;5.90;;;14.40;99.90;;;;;;6182801;23;20079;-87
2021/08/01 04:41:39;;;;;;;9.80;5.05;;;14.40;99.90;;;;;;6186569;23;20017;-87
2021/08/01 04:44:07;;;;;;;13.10;5.07;;;14.40;99.90;;;;;;6198376;23;20040;-88
2021/08/01 04:46:34;;;;;;;10.50;5.60;;;14.50;99.90;;;;;;6188209;23;20437;-87
2021/08/01 04:49:01;;;;;;;11.07;4.43;;;14.50;99.90;;;;;;6181424;23;20028;-88
2021/08/01 04:51:28;;;;;;;12.20;5.25;;;14.50;99.90;;;;;;6181153;23;20306;-87
2021/08/01 04:53:55;;;;;;;11.32;5.97;;;14.50;99.90;;;;;;6183875;23;20448;-87
2021/08/01 04:56:24;;;;;;;8.95;4.45;;;14.50;99.90;;;;;;6181901;23;20052;-87
2021/08/01 04:58:51;;;;;;;7.63;3.80;;;14.50;99.90;;;;;;6182312;23;20028;-87
2021/08/01 05:01:18;;;;;;;10.43;4.13;;;14.50;99.90;;;;;;6181082;23;20503;-87
2021/08/01 05:03:46;;;;;;;8.02;4.07;;;14.50;99.90;;;;;;6181903;23;20075;-87
2021/08/01 05:06:15;;;;;;;6.38;3.72;;;14.50;99.90;;;;;;6181082;23;20021;-87
2021/08/01 05:08:44;;;;;;;10.85;3.78;;;14.50;99.90;;;;;;6181705;23;20332;-87
2021/08/01 05:11:11;;;;;;;7.60;3.95;;;14.50;99.90;;;;;;6181725;23;20021;-88
2021/08/01 05:13:40;;;;;;;;;;;14.50;99.90;;;;;;6186470;23;20028;-89
2021/08/01 05:16:07;;;;;;;8.80;4.65;;;14.50;99.90;;;;;;6185784;23;19920;-89
2021/08/01 05:18:34;;;;;;;14.95;4.57;;;14.50;99.90;;;;;;6183885;23;20021;-89
2021/08/01 05:21:01;;;;;;;9.32;4.07;;;14.50;99.90;;;;;;6184233;23;20387;-89
2021/08/01 05:23:28;;;;;;;8.10;3.78;;;14.50;99.90;;;;;;6184783;23;20350;-89
2021/08/01 05:25:57;;;;;;;9.15;4.32;;;14.60;99.90;;;;;;6183895;23;20021;-89
2021/08/01 05:28:24;;;;;;;7.22;4.10;;;14.60;99.90;;;;;;6183011;23;20364;-89
2021/08/01 05:30:51;;;;;;;8.50;4.32;;;14.60;99.90;;;;;;6184148;23;20115;-89
2021/08/01 05:33:18;;;;;;;9.00;3.78;;;14.60;99.90;;;;;;6183330;23;20028;-89
2021/08/01 05:35:45;;;;;;;9.35;4.05;;;14.70;99.90;;;;;;6184270;23;20025;-90
2021/08/01 05:38:12;;;;;;;9.05;4.43;;;14.70;99.90;;;;;;6182524;23;20021;-89
2021/08/01 05:40:43;;;;;;;7.50;4.20;;;14.70;99.90;;;;;;6183942;23;20053;-89
2021/08/01 05:43:10;;;;;;;9.98;4.40;;;14.70;99.90;;;;;;6183288;23;20021;-89
2021/08/01 05:45:37;;;;;;;10.40;4.93;;;14.70;99.90;;;;;;6185379;23;20021;-89
2021/08/01 05:48:04;;;;;;;7.82;4.28;;;14.80;99.90;;;;;;6182546;23;20030;-89
2021/08/01 05:50:31;;;;;;;9.25;4.32;;;14.80;99.90;;;;;;6183466;23;20104;-89
2021/08/01 05:52:58;;;;;;;13.23;4.22;;;14.80;99.90;;;;;;6183785;23;20021;-89
2021/08/01 05:55:27;;;;;;;8.95;4.00;;;14.90;99.90;;;;;;6183717;23;20013;-89
2021/08/01 05:57:54;;;;;;;10.25;4.60;;;14.80;99.90;;;;;;6180658;23;20024;-89
2021/08/01 06:00:21;;;;;;;8.32;4.07;;;14.90;99.90;;;;;;6185104;23;20024;-89
2021/08/01 06:02:48;;;;;;;9.05;4.18;;;14.90;99.90;;;;;;6203831;23;20070;-86
2021/08/01 06:05:15;;;;;;;9.75;4.30;;;14.90;99.90;;;;;;6187791;23;20116;-88
2021/08/01 06:07:42;;;;;;;10.63;4.47;;;15.00;99.90;;;;;;6183843;23;20120;-87
2021/08/01 06:10:09;;;;;;;8.30;3.83;;;15.00;99.90;;;;;;6182588;23;20025;-87
2021/08/01 06:12:36;;;;;;;7.22;4.35;;;15.00;99.90;;;;;;6183099;23;20040;-88
2021/08/01 06:15:05;;;;;;;7.85;4.30;;;15.10;99.90;;;;;;6183129;23;20090;-88
2021/08/01 06:17:34;;;;;;;6.55;4.05;;;15.10;99.90;;;;;;6183432;23;20028;-88
2021/08/01 06:20:05;;;;;;;8.13;3.90;;;15.10;99.90;;;;;;6183788;23;20021;-88
2021/08/01 06:22:32;;;;;;;9.63;4.22;;;15.10;99.90;;;;;;6182491;23;20288;-88
2021/08/01 06:24:59;;;;;;;7.88;4.10;;;15.20;99.90;;;;;;6183145;23;20033;-88
2021/08/01 06:27:26;;;;;;;7.57;4.05;;;15.20;99.90;;;;;;6182895;23;20017;-88
2021/08/01 06:29:53;;;;;;;7.25;4.03;;;15.20;99.90;;;;;;6183133;23;20028;-93
2021/08/01 06:32:25;;;;;;;7.20;3.80;;;15.30;99.90;;;;;;6155976;23;20012;-89
2021/08/01 06:34:52;;;;;;;9.60;3.50;;;15.30;99.90;;;;;;6183355;23;20089;-90
2021/08/01 06:37:19;;;;;;;6.32;3.25;;;15.30;99.90;;;;;;6167481;23;20084;-89
2021/08/01 06:39:47;;;;;;;10.73;3.58;;;15.40;99.90;;;;;;6179753;23;20025;-90
2021/08/01 06:42:14;;;;;;;6.50;2.97;;;15.40;99.90;;;;;;6179799;23;20024;-89
2021/08/01 06:44:41;;;;;;;6.50;3.22;;;15.50;99.90;;;;;;6181640;23;20100;-89
2021/08/01 06:47:08;;;;;;;6.05;2.90;;;15.50;99.90;;;;;;6181506;23;20483;-89
2021/08/01 06:49:35;;;;;;;7.13;2.90;;;15.60;99.90;;;;;;6179962;23;20016;-90
2021/08/01 06:52:14;;;;;;;7.03;2.80;;;15.60;99.90;;;;;;6179662;23;20092;-89
2021/08/01 06:54:41;;;;;;;4.68;3.00;;;15.70;99.90;;;;;;6181361;23;20436;-90
2021/08/01 06:57:08;;;;;;;5.13;2.88;;;15.80;99.90;;;;;;6166527;23;20043;-88
2021/08/01 06:59:35;;;;;;;3.58;2.55;;;15.90;99.90;;;;;;6180704;23;20020;-89
2021/08/01 07:02:02;;;;;;;6.13;2.60;;;16.00;99.90;;;;;;6181419;23;20079;-89
2021/08/01 07:04:30;;;;;;;6.38;2.92;;;16.00;99.90;;;;;;6180121;23;20071;-89
2021/08/01 07:06:58;;;;;;;4.95;2.65;;;16.00;99.90;;;;;;6180680;23;20021;-89
2021/08/01 07:09:25;;;;;;;3.88;2.38;;;16.10;99.90;;;;;;6181762;23;20047;-90
2021/08/01 07:11:52;;;;;;;3.75;2.53;;;16.20;99.90;;;;;;6180560;23;20033;-89
2021/08/01 07:14:19;;;;;;;4.40;2.63;;;16.20;99.90;;;;;;6180196;23;20015;-90
2021/08/01 07:16:46;;;;;;;4.65;2.10;;;16.30;99.90;;;;;;6181353;23;20084;-89
2021/08/01 07:19:14;;;;;;;5.15;3.08;;;16.30;99.90;;;;;;6189987;23;20005;-90
2021/08/01 07:21:41;;;;;;;4.50;2.30;;;16.30;99.90;;;;;;6199177;23;20021;-90
2021/08/01 07:24:08;;;;;;;3.05;2.20;;;16.30;99.90;;;;;;6183407;23;20025;-89
2021/08/01 07:26:35;;;;;;;4.30;2.28;;;16.40;99.90;;;;;;6180217;23;20039;-89
2021/08/01 07:29:02;;;;;;;4.10;1.98;;;16.40;99.90;;;;;;6180461;23;20238;-90
2021/08/01 07:31:29;;;;;;;4.82;2.20;;;16.40;99.90;;;;;;6179547;23;20023;-89
2021/08/01 07:33:57;;;;;;;3.72;2.30;;;16.50;99.90;;;;;;6180153;23;20119;-90
2021/08/01 07:36:24;;;;;;;5.00;2.40;;;16.60;99.90;;;;;;6179728;23;20133;-89
2021/08/01 07:38:51;;;;;;;4.93;2.55;;;16.60;99.90;;;;;;6179890;23;20025;-90
2021/08/01 07:41:19;;;;;;;5.63;2.58;;;16.60;99.90;;;;;;6179720;23;20041;-89
2021/08/01 07:43:46;;;;;;;4.97;2.08;;;16.70;99.90;;;;;;6180228;23;20021;-89
2021/08/01 07:46:13;;;;;;;5.13;2.35;;;16.80;99.90;;;;;;6179801;23;20033;-89
2021/08/01 07:48:40;;;;;;;4.97;2.33;;;16.90;99.90;;;;;;6180560;23;20051;-90
2021/08/01 07:51:07;;;;;;;4.28;2.33;;;17.00;99.90;;;;;;6180062;23;20025;-89
2021/08/01 07:53:35;;;;;;;6.30;2.28;;;17.10;99.90;;;;;;6179879;23;20103;-90
2021/08/01 07:56:02;;;;;;;3.28;2.15;;;17.10;99.90;;;;;;6181055;23;20021;-90
2021/08/01 07:58:32;;;;;;;4.18;2.33;;;17.20;99.90;;;;;;6179201;23;20452;-89
2021/08/01 08:00:59;;;;;;;3.67;2.33;;;17.20;99.90;;;;;;6179993;23;20019;-89
2021/08/01 08:03:27;;;;;;;3.63;2.22;;;17.30;99.90;;;;;;6179083;23;20021;-89
2021/08/01 08:05:54;;;;;;;4.22;2.20;;;17.40;99.90;;;;;;6180869;23;20035;-89
2021/08/01 08:08:21;;;;;;;4.78;2.30;;;17.50;99.90;;;;;;6178747;23;20028;-89
2021/08/01 08:10:48;;;;;;;4.13;2.33;;;17.60;99.90;;;;;;6182262;23;20027;-88
2021/08/01 08:13:15;;;;;;;3.75;1.83;;;17.70;99.90;;;;;;6179330;23;20017;-89
2021/08/01 08:15:42;;;;;;;3.63;2.50;;;17.70;99.90;;;;;;6182494;23;20032;-90
2021/08/01 08:18:09;;;;;;;4.75;2.40;;;17.80;99.90;;;;;;6184026;23;20037;-88
2021/08/01 08:20:36;;;;;;;4.55;2.50;;;17.90;99.90;;;;;;6181364;23;20028;-88
2021/08/01 08:23:03;;;;;;;3.75;2.03;;;17.90;99.90;;;;;;6180537;23;20104;-89
2021/08/01 08:25:31;;;;;;;4.53;2.30;;;18.10;99.90;;;;;;6180093;23;20686;-89
2021/08/01 08:27:58;;;;;;;2.70;1.80;;;18.20;99.90;;;;;;6181091;23;20024;-88
2021/08/01 08:30:25;;;;;;;4.47;1.88;;;18.20;99.90;;;;;;6180685;23;21450;-89
2021/08/01 08:32:52;;;;;;;3.90;2.10;;;18.20;99.90;;;;;;6181002;23;20023;-89
2021/08/01 08:35:19;;;;;;;4.00;1.83;;;18.20;99.90;;;;;;6181755;23;20457;-89
2021/08/01 08:37:52;;;;;;;5.00;1.67;;;18.20;99.90;;;;;;6195973;23;20029;-89
2021/08/01 08:40:21;;;;;;;4.72;2.00;;;18.20;99.90;;;;;;6186966;23;20071;-89
2021/08/01 08:42:49;;;;;;;3.67;2.08;;;18.10;99.90;;;;;;6180406;23;20021;-88
2021/08/01 08:45:17;;;;;;;2.28;1.88;;;18.10;99.90;;;;;;6179561;23;20076;-88
2021/08/01 08:47:46;;;;;;;3.65;1.70;;;18.10;99.90;;;;;;6182125;23;20047;-89
2021/08/01 08:50:19;;;;;;;6.50;2.10;;;18.20;99.90;;;;;;6180981;23;20047;-92
2021/08/01 08:52:47;;;;;;;2.40;2.10;;;18.20;99.90;;;;;;6182386;23;20136;-89
2021/08/01 08:55:15;;;;;;;3.45;1.95;;;18.30;99.90;;;;;;6182115;23;20096;-89
2021/08/01 08:57:46;;;;;;;4.43;2.03;;;18.30;99.90;;;;;;6181986;23;20027;-89
2021/08/01 09:00:14;;;;;;;4.50;2.00;;;18.40;99.90;;;;;;6181547;23;20025;-89
2021/08/01 09:02:41;;;;;;;6.32;2.63;;;18.40;99.90;;;;;;6184770;23;20032;-89
2021/08/01 09:05:09;;;;;;;5.65;1.90;;;18.40;99.90;;;;;;6182297;23;20120;-88
2021/08/01 09:07:39;;;;;;;3.35;1.58;;;18.40;99.90;;;;;;6182276;23;20021;-89
2021/08/01 09:10:10;;;;;;;4.57;1.80;;;18.50;99.90;;;;;;6168672;23;20021;-88
2021/08/01 09:12:44;;;;;;;3.72;1.60;;;18.60;99.90;;;;;;6182112;23;20025;-89
2021/08/01 09:15:24;;;;;;;4.45;1.42;;;18.70;99.90;;;;;;6181722;23;20577;-89
2021/08/01 09:17:55;;;;;;;4.57;1.55;;;18.80;99.90;;;;;;6181950;23;20021;-89
2021/08/01 09:20:22;;;;;;;3.10;1.50;;;18.90;99.90;;;;;;6181942;23;20013;-89
2021/08/01 09:23:01;;;;;;;2.60;1.63;;;18.90;99.90;;;;;;6181987;23;20032;-89
2021/08/01 09:25:34;;;;;;;5.18;1.77;;;19.00;99.90;;;;;;6180531;23;20496;-89
2021/08/01 09:28:16;;;;;;;3.03;1.80;;;19.10;99.90;;;;;;6181885;23;20025;-89
2021/08/01 09:30:48;;;;;;;2.47;1.30;;;19.30;99.90;;;;;;6181678;23;20340;-89
2021/08/01 09:33:27;;;;;;;3.00;1.30;;;19.50;99.90;;;;;;6181494;23;20024;-89
2021/08/01 09:36:12;;;;;;;3.17;1.42;;;19.60;99.90;;;;;;6182639;23;20028;-89
2021/08/01 09:38:50;;;;;;;1.80;1.23;;;19.70;99.90;;;;;;6183016;23;20055;-88
2021/08/01 09:41:45;;;;;;;3.35;1.63;;;19.80;99.90;;;;;;6182063;23;20021;-89
2021/08/01 09:44:18;;;;;;;2.78;1.38;;;19.80;99.90;;;;;;6189748;23;20005;-90
2021/08/01 09:46:52;;;;;;;4.77;1.40;;;20.00;99.90;;;;;;6188121;23;20048;-87
2021/08/01 09:49:21;;;;;;;3.92;1.40;;;20.20;99.90;;;;;;6181977;23;20017;-87
2021/08/01 09:51:54;;;;;;;2.53;1.40;;;20.30;99.90;;;;;;6173540;23;20565;-88
2021/08/01 09:54:26;;;;;;;2.03;1.20;;;20.50;99.90;;;;;;6181795;23;20028;-88
2021/08/01 09:56:57;;;;;;;2.85;1.60;;;20.50;99.90;;;;;;6184952;23;20028;-87
2021/08/01 10:02:58;;;;;;;3.92;1.70;;;20.60;99.90;;;;;;6046824;23;20115;-87
2021/08/01 10:05:26;;;;;;;3.70;1.48;;;20.60;99.90;;;;;;6036280;23;20022;-87
2021/08/01 10:07:53;;;;;;;4.53;1.70;;;20.60;99.90;;;;;;6061213;23;20608;-89
2021/08/01 10:10:24;;;;;;;1.90;1.23;;;20.60;99.90;;;;;;6062451;23;20097;-88
2021/08/01 10:12:55;;;;;;;2.72;1.70;;;20.60;99.90;;;;;;6062127;23;20022;-88
2021/08/01 10:15:22;;;;;;;3.50;1.50;;;20.70;99.90;;;;;;6062100;23;20018;-88
2021/08/01 10:17:49;;;;;;;5.13;1.55;;;20.70;99.90;;;;;;6062926;23;20058;-88
2021/08/01 10:20:16;;;;;;;3.45;1.75;;;20.60;99.90;;;;;;6062164;23;20026;-88
2021/08/01 10:22:44;;;;;;;4.55;2.03;;;20.60;99.90;;;;;;6063423;23;20033;-88
2021/08/01 10:25:19;;;;;;;4.80;2.00;;;20.50;99.90;;;;;;6062618;23;20434;-89
2021/08/01 10:27:52;;;;;;;4.72;1.88;;;20.60;99.90;;;;;;6062329;23;20023;-90
2021/08/01 10:30:21;;;;;;;2.60;1.95;;;20.60;99.90;;;;;;6062206;23;20121;-88
2021/08/01 10:32:55;;;;;;;5.70;2.00;;;20.60;99.90;;;;;;6062512;23;20075;-88
2021/08/01 10:35:24;;;;;;;4.70;1.90;;;20.50;99.90;;;;;;6049870;23;20097;-88
2021/08/01 10:37:56;;;;;;;3.92;1.85;;;20.50;99.90;;;;;;6065506;23;20019;-86
2021/08/01 10:40:25;;;;;;;3.05;2.08;;;20.50;99.90;;;;;;6182242;23;20079;-86
2021/08/01 10:42:55;;;;;;;3.80;2.17;;;20.40;99.90;;;;;;6182872;23;20048;-86
2021/08/01 10:45:22;;;;;;;4.72;2.25;;;20.30;99.90;;;;;;6184765;23;20021;-86
2021/08/01 10:47:51;;;;;;;3.10;2.40;;;20.20;99.90;;;;;;6183970;23;20013;-86
2021/08/01 10:50:27;;;;;;;4.28;2.00;;;20.20;99.90;;;;;;6183290;23;20036;-87
2021/08/01 10:53:18;;;;;;;6.70;2.53;;;20.20;99.90;;;;;;6183792;23;20324;-87
2021/08/01 10:55:53;;;;;;;4.82;2.00;;;20.20;99.90;;;;;;6182708;23;20092;-87
2021/08/01 10:58:20;;;;;;;5.45;2.35;;;20.20;99.90;;;;;;6183607;23;20040;-86
2021/08/01 11:01:00;;;;;;;4.68;1.98;;;20.30;99.90;;;;;;6185479;23;20021;-86
2021/08/01 11:03:34;;;;;;;3.80;2.00;;;20.10;99.90;;;;;;6184712;23;20380;-86
2021/08/01 11:06:03;;;;;;;3.50;2.10;;;20.20;99.90;;;;;;6185578;23;20099;-86
2021/08/01 11:08:31;;;;;;;3.15;2.10;;;20.20;99.90;;;;;;6183444;23;20020;-87
2021/08/01 11:11:16;;;;;;;4.75;2.00;;;20.20;99.90;;;;;;6185340;23;20519;-86
2021/08/01 11:13:44;;;;;;;3.92;2.03;;;20.20;99.90;;;;;;6184651;23;20040;-86
2021/08/01 11:16:14;;;;;;;3.83;1.58;;;20.00;99.90;;;;;;6183651;23;20024;-86
2021/08/01 11:18:46;;;;;;;3.42;1.83;;;20.00;99.90;;;;;;6183873;23;20040;-87
2021/08/01 11:21:13;;;;;;;2.65;1.70;;;20.00;99.90;;;;;;6184662;23;20024;-86
2021/08/01 11:23:46;;;;;;;2.65;1.90;;;19.90;99.90;;;;;;6183819;23;20025;-86
2021/08/01 11:26:18;;;;;;;2.75;1.50;;;19.80;99.90;;;;;;6184296;23;20025;-86
2021/08/01 11:29:03;;;;;;;3.15;1.60;;;19.80;99.90;;;;;;6183894;23;20340;-86
2021/08/01 11:31:30;;;;;;;1.90;1.38;;;19.80;99.90;;;;;;6183130;23;20049;-86
2021/08/01 11:34:20;;;;;;;2.42;1.40;;;19.80;99.90;;;;;;6183676;23;20441;-86
2021/08/01 11:36:47;;;;;;;2.30;1.40;;;19.70;99.90;;;;;;6183170;23;20029;-86
2021/08/01 11:39:14;;;;;;;3.60;1.60;;;19.60;99.90;;;;;;6182722;23;20017;-86
2021/08/01 11:41:43;;;;;;;2.35;1.67;;;19.60;99.90;;;;;;6183707;23;20100;-86
2021/08/01 11:44:24;;;;;;;2.40;1.70;;;19.40;99.90;;;;;;6182928;23;20025;-86
2021/08/01 11:47:07;;;;;;;2.55;1.70;;;19.30;99.90;;;;;;6183593;23;20016;-87
2021/08/01 11:49:42;;;;;;;3.72;1.65;;;19.20;99.90;;;;;;6182559;23;20441;-86
2021/08/01 11:52:10;;;;;;;3.25;1.88;;;19.10;99.90;;;;;;6182769;23;20079;-86
2021/08/01 11:54:40;;;;;;;3.60;2.03;;;18.90;99.90;;;;;;6183124;23;20071;-87
2021/08/01 11:57:09;;;;;;;3.15;1.52;;;18.80;99.90;;;;;;6182286;23;20024;-87
2021/08/01 11:59:36;;;;;;;3.72;1.63;;;18.70;99.90;;;;;;6184932;23;20016;-87
2021/08/01 12:02:09;;;;;;;2.60;1.52;;;18.70;99.90;;;;;;6185104;23;20017;-87
2021/08/01 12:04:37;;;;;;;3.13;1.60;;;18.70;99.90;;;;;;6182723;23;20025;-86
2021/08/01 12:07:05;;;;;;;3.15;1.70;;;18.70;99.90;;;;;;6183166;23;20096;-87
2021/08/01 12:09:39;;;;;;;3.15;1.70;;;18.70;99.90;;;;;;6182825;23;20021;-87
2021/08/01 12:12:07;;;;;;;2.83;1.70;;;18.70;99.90;;;;;;6181689;23;20028;-87
2021/08/01 12:14:37;;;;;;;5.07;1.90;;;18.80;99.90;;;;;;6182827;23;20103;-87
2021/08/01 12:17:06;;;;;;;3.17;1.70;;;18.80;99.90;;;;;;6182324;23;20092;-87
2021/08/01 12:19:35;;;;;;;3.45;1.50;;;18.80;99.90;;;;;;6183058;23;20021;-87
2021/08/01 12:22:09;;;;;;;2.30;1.42;;;18.70;99.90;;;;;;6185003;23;20052;-87
2021/08/01 12:24:51;;;;;;;2.05;1.20;;;18.90;99.90;;;;;;6184876;23;20056;-86
2021/08/01 12:27:27;;;;;;;2.80;1.20;;;18.90;99.90;;;;;;6184986;23;20025;-87
2021/08/01 12:30:02;;;;;;;2.35;1.25;;;19.10;99.90;;;;;;6185836;23;20017;-87
2021/08/01 12:32:43;;;;;;;2.88;1.30;;;19.30;99.90;;;;;;6185118;23;20432;-86
2021/08/01 12:35:25;;;;;;;2.40;1.40;;;19.50;99.90;;;;;;6185894;23;20507;-87
2021/08/01 12:38:08;;;;;;;3.03;1.27;;;19.80;99.90;;;;;;6185169;23;20448;-87
2021/08/01 12:40:43;;;;;;;1.88;0.90;;;20.00;99.90;;;;;;6184896;23;20024;-86
2021/08/01 12:43:24;;;;;;;1.10;0.80;;;20.30;99.90;;;;;;6186346;23;20013;-87
2021/08/01 12:45:54;;;;;;;1.60;0.80;;;20.60;99.90;;;;;;6186624;23;20027;-87
2021/08/01 12:48:26;;;;;;;2.17;1.13;;;20.80;99.90;;;;;;6186182;23;20047;-87
2021/08/01 12:50:57;;;;;;;1.58;1.23;;;21.00;99.90;;;;;;6184913;23;20027;-87
2021/08/01 12:53:27;;;;;;;3.55;1.42;;;21.10;99.90;;;;;;6184176;23;20029;-87
2021/08/01 12:55:56;;;;;;;3.83;1.50;;;21.20;99.90;;;;;;6186708;23;20024;-87
2021/08/01 12:58:33;;;;;;;1.88;1.40;;;21.10;99.90;;;;;;6184245;23;20020;-87
2021/08/01 13:01:03;;;;;;;3.40;1.50;;;21.10;99.90;;;;;;6184856;23;20025;-87
2021/08/01 13:03:41;;;;;;;2.78;1.75;;;20.90;99.90;;;;;;6185866;23;20491;-87